sensor_id;sensor_type;location;lat;lon;timestamp;P1;durP1;ratioP1;P2;durP2;ratioP2
8887;SDS011;4480;52.370;9.748;2023-05-10T00:00:38;4.13;;;3.63;;
8887;SDS011;4480;52.370;9.748;2023-05-10T00:03:05;4.70;;;3.00;;
8887;SDS011;4480;52.370;9.748;2023-05-10T00:05:31;4.67;;;3.00;;
8887;SDS011;4480;52.370;9.748;2023-05-10T00:07:58;4.23;;;3.00;;
8887;SDS011;4480;52.370;9.748;2023-05-10T00:10:25;4.63;;;3.33;;
8887;SDS011;4480;52.370;9.748;2023-05-10T00:12:52;3.90;;;3.30;;
8887;SDS011;4480;52.370;9.748;2023-05-10T00:15:20;3.30;;;3.00;;
8887;SDS011;4480;52.370;9.748;2023-05-10T00:17:47;4.60;;;2.83;;
8887;SDS011;4480;52.370;9.748;2023-05-10T00:20:13;3.33;;;3.00;;
8887;SDS011;4480;52.370;9.748;2023-05-10T00:22:40;5.20;;;2.90;;
8887;SDS011;4480;52.370;9.748;2023-05-10T00:25:08;5.40;;;3.70;;
8887;SDS011;4480;52.370;9.748;2023-05-10T00:27:35;4.43;;;3.37;;
8887;SDS011;4480;52.370;9.748;2023-05-10T00:30:02;4.73;;;3.10;;
8887;SDS011;4480;52.370;9.748;2023-05-10T00:32:30;4.80;;;2.90;;
8887;SDS011;4480;52.370;9.748;2023-05-10T00:34:57;7.93;;;3.70;;
8887;SDS011;4480;52.370;9.748;2023-05-10T00:37:24;3.87;;;3.30;;
8887;SDS011;4480;52.370;9.748;2023-05-10T00:39:51;3.03;;;2.73;;
8887;SDS011;4480;52.370;9.748;2023-05-10T00:42:18;5.63;;;3.00;;
8887;SDS011;4480;52.370;9.748;2023-05-10T00:44:44;7.33;;;3.43;;
8887;SDS011;4480;52.370;9.748;2023-05-10T00:47:11;3.87;;;3.23;;
8887;SDS011;4480;52.370;9.748;2023-05-10T00:49:40;4.23;;;2.87;;
8887;SDS011;4480;52.370;9.748;2023-05-10T00:52:07;3.87;;;3.50;;
8887;SDS011;4480;52.370;9.748;2023-05-10T00:54:34;3.60;;;3.30;;
8887;SDS011;4480;52.370;9.748;2023-05-10T00:57:01;4.20;;;3.80;;
8887;SDS011;4480;52.370;9.748;2023-05-10T00:59:28;4.53;;;3.70;;
8887;SDS011;4480;52.370;9.748;2023-05-10T01:01:55;9.47;;;3.63;;
8887;SDS011;4480;52.370;9.748;2023-05-10T01:04:23;4.68;;;3.33;;
8887;SDS011;4480;52.370;9.748;2023-05-10T01:06:52;3.53;;;3.23;;
8887;SDS011;4480;52.370;9.748;2023-05-10T01:09:19;4.90;;;3.60;;
8887;SDS011;4480;52.370;9.748;2023-05-10T01:11:47;3.60;;;3.23;;
8887;SDS011;4480;52.370;9.748;2023-05-10T01:14:14;4.07;;;3.27;;
8887;SDS011;4480;52.370;9.748;2023-05-10T01:16:44;4.17;;;3.10;;
8887;SDS011;4480;52.370;9.748;2023-05-10T01:19:12;3.40;;;3.10;;
8887;SDS011;4480;52.370;9.748;2023-05-10T01:21:48;10.43;;;4.00;;
8887;SDS011;4480;52.370;9.748;2023-05-10T01:27:30;4.47;;;3.37;;
8887;SDS011;4480;52.370;9.748;2023-05-10T01:33:23;6.60;;;3.60;;
8887;SDS011;4480;52.370;9.748;2023-05-10T01:35:54;4.90;;;3.40;;
8887;SDS011;4480;52.370;9.748;2023-05-10T01:38:29;7.33;;;4.20;;
8887;SDS011;4480;52.370;9.748;2023-05-10T01:41:05;8.03;;;4.03;;
8887;SDS011;4480;52.370;9.748;2023-05-10T01:43:44;14.27;;;5.40;;
8887;SDS011;4480;52.370;9.748;2023-05-10T01:46:17;7.23;;;4.13;;
8887;SDS011;4480;52.370;9.748;2023-05-10T01:48:51;5.20;;;4.03;;
8887;SDS011;4480;52.370;9.748;2023-05-10T01:51:21;4.90;;;3.83;;
8887;SDS011;4480;52.370;9.748;2023-05-10T01:53:50;5.60;;;4.10;;
8887;SDS011;4480;52.370;9.748;2023-05-10T01:56:20;3.87;;;3.50;;
8887;SDS011;4480;52.370;9.748;2023-05-10T01:58:52;4.77;;;3.83;;
8887;SDS011;4480;52.370;9.748;2023-05-10T02:01:20;3.93;;;3.63;;
8887;SDS011;4480;52.370;9.748;2023-05-10T02:03:48;5.97;;;4.80;;
8887;SDS011;4480;52.370;9.748;2023-05-10T02:06:18;5.63;;;4.23;;
8887;SDS011;4480;52.370;9.748;2023-05-10T02:08:46;4.30;;;3.90;;
8887;SDS011;4480;52.370;9.748;2023-05-10T02:11:15;5.07;;;4.53;;
8887;SDS011;4480;52.370;9.748;2023-05-10T02:13:46;5.77;;;4.20;;
8887;SDS011;4480;52.370;9.748;2023-05-10T02:16:15;8.60;;;4.77;;
8887;SDS011;4480;52.370;9.748;2023-05-10T02:18:43;4.43;;;4.03;;
8887;SDS011;4480;52.370;9.748;2023-05-10T02:21:12;4.53;;;4.13;;
8887;SDS011;4480;52.370;9.748;2023-05-10T02:23:41;6.03;;;4.53;;
8887;SDS011;4480;52.370;9.748;2023-05-10T02:26:09;5.97;;;5.37;;
8887;SDS011;4480;52.370;9.748;2023-05-10T02:28:38;7.67;;;5.10;;
8887;SDS011;4480;52.370;9.748;2023-05-10T02:31:06;5.83;;;5.33;;
8887;SDS011;4480;52.370;9.748;2023-05-10T02:33:34;5.60;;;5.00;;
8887;SDS011;4480;52.370;9.748;2023-05-10T02:36:02;5.68;;;4.88;;
8887;SDS011;4480;52.370;9.748;2023-05-10T02:38:31;5.40;;;4.90;;
8887;SDS011;4480;52.370;9.748;2023-05-10T02:40:59;6.50;;;5.10;;
8887;SDS011;4480;52.370;9.748;2023-05-10T02:43:28;6.83;;;5.40;;
8887;SDS011;4480;52.370;9.748;2023-05-10T02:45:57;7.80;;;5.10;;
8887;SDS011;4480;52.370;9.748;2023-05-10T02:48:24;8.00;;;5.30;;
8887;SDS011;4480;52.370;9.748;2023-05-10T02:50:51;6.87;;;5.53;;
8887;SDS011;4480;52.370;9.748;2023-05-10T02:53:23;7.57;;;5.37;;
8887;SDS011;4480;52.370;9.748;2023-05-10T02:55:58;5.87;;;5.27;;
8887;SDS011;4480;52.370;9.748;2023-05-10T02:58:28;6.57;;;5.97;;
8887;SDS011;4480;52.370;9.748;2023-05-10T03:00:55;5.60;;;5.00;;
8887;SDS011;4480;52.370;9.748;2023-05-10T03:03:22;8.93;;;5.63;;
8887;SDS011;4480;52.370;9.748;2023-05-10T03:05:49;6.50;;;5.27;;
8887;SDS011;4480;52.370;9.748;2023-05-10T03:08:15;6.03;;;5.23;;
8887;SDS011;4480;52.370;9.748;2023-05-10T03:10:45;6.57;;;5.60;;
8887;SDS011;4480;52.370;9.748;2023-05-10T03:13:31;8.47;;;5.87;;
8887;SDS011;4480;52.370;9.748;2023-05-10T03:16:05;5.80;;;5.30;;
8887;SDS011;4480;52.370;9.748;2023-05-10T03:18:37;6.17;;;5.67;;
8887;SDS011;4480;52.370;9.748;2023-05-10T03:21:10;7.67;;;6.10;;
8887;SDS011;4480;52.370;9.748;2023-05-10T03:23:40;7.00;;;5.80;;
8887;SDS011;4480;52.370;9.748;2023-05-10T03:26:09;7.82;;;5.70;;
8887;SDS011;4480;52.370;9.748;2023-05-10T03:28:41;6.70;;;6.10;;
8887;SDS011;4480;52.370;9.748;2023-05-10T03:31:08;6.80;;;6.10;;
8887;SDS011;4480;52.370;9.748;2023-05-10T03:33:35;8.20;;;5.67;;
8887;SDS011;4480;52.370;9.748;2023-05-10T03:36:11;7.00;;;6.17;;
8887;SDS011;4480;52.370;9.748;2023-05-10T03:38:38;7.07;;;6.17;;
8887;SDS011;4480;52.370;9.748;2023-05-10T03:41:05;6.97;;;6.27;;
8887;SDS011;4480;52.370;9.748;2023-05-10T03:43:31;7.10;;;6.40;;
8887;SDS011;4480;52.370;9.748;2023-05-10T03:45:59;6.73;;;6.13;;
8887;SDS011;4480;52.370;9.748;2023-05-10T03:48:27;8.43;;;6.93;;
8887;SDS011;4480;52.370;9.748;2023-05-10T03:50:54;8.30;;;6.13;;
8887;SDS011;4480;52.370;9.748;2023-05-10T03:53:21;7.87;;;6.90;;
8887;SDS011;4480;52.370;9.748;2023-05-10T03:55:48;11.37;;;6.57;;
8887;SDS011;4480;52.370;9.748;2023-05-10T03:58:14;10.10;;;6.37;;
8887;SDS011;4480;52.370;9.748;2023-05-10T04:00:41;7.87;;;7.07;;
8887;SDS011;4480;52.370;9.748;2023-05-10T04:03:11;7.10;;;6.50;;
8887;SDS011;4480;52.370;9.748;2023-05-10T04:05:38;8.60;;;6.80;;
8887;SDS011;4480;52.370;9.748;2023-05-10T04:08:05;7.97;;;6.40;;
8887;SDS011;4480;52.370;9.748;2023-05-10T04:11:39;8.10;;;7.30;;
8887;SDS011;4480;52.370;9.748;2023-05-10T04:14:06;6.97;;;6.27;;
8887;SDS011;4480;52.370;9.748;2023-05-10T04:16:33;7.90;;;7.13;;
8887;SDS011;4480;52.370;9.748;2023-05-10T04:19:00;8.37;;;7.50;;
8887;SDS011;4480;52.370;9.748;2023-05-10T04:21:27;9.50;;;7.90;;
8887;SDS011;4480;52.370;9.748;2023-05-10T04:23:53;9.07;;;7.30;;
8887;SDS011;4480;52.370;9.748;2023-05-10T04:26:20;7.90;;;7.10;;
8887;SDS011;4480;52.370;9.748;2023-05-10T04:28:48;8.03;;;7.23;;
8887;SDS011;4480;52.370;9.748;2023-05-10T04:31:16;8.70;;;7.50;;
8887;SDS011;4480;52.370;9.748;2023-05-10T04:33:43;8.03;;;7.23;;
8887;SDS011;4480;52.370;9.748;2023-05-10T04:36:09;8.00;;;7.20;;
8887;SDS011;4480;52.370;9.748;2023-05-10T04:38:36;9.57;;;6.70;;
8887;SDS011;4480;52.370;9.748;2023-05-10T04:41:03;10.00;;;7.10;;
8887;SDS011;4480;52.370;9.748;2023-05-10T04:43:31;7.23;;;6.50;;
8887;SDS011;4480;52.370;9.748;2023-05-10T04:45:59;9.47;;;7.60;;
8887;SDS011;4480;52.370;9.748;2023-05-10T04:48:26;7.80;;;6.93;;
8887;SDS011;4480;52.370;9.748;2023-05-10T04:50:52;10.13;;;7.60;;
8887;SDS011;4480;52.370;9.748;2023-05-10T04:53:19;8.63;;;7.67;;
8887;SDS011;4480;52.370;9.748;2023-05-10T04:55:46;10.20;;;8.03;;
8887;SDS011;4480;52.370;9.748;2023-05-10T04:58:13;8.17;;;7.37;;
8887;SDS011;4480;52.370;9.748;2023-05-10T05:00:40;9.40;;;8.30;;
8887;SDS011;4480;52.370;9.748;2023-05-10T05:03:09;8.23;;;7.30;;
8887;SDS011;4480;52.370;9.748;2023-05-10T05:05:35;7.90;;;7.10;;
8887;SDS011;4480;52.370;9.748;2023-05-10T05:08:02;9.87;;;7.47;;
8887;SDS011;4480;52.370;9.748;2023-05-10T05:10:29;7.70;;;6.90;;
8887;SDS011;4480;52.370;9.748;2023-05-10T05:12:56;9.30;;;7.83;;
8887;SDS011;4480;52.370;9.748;2023-05-10T05:15:23;8.10;;;7.30;;
8887;SDS011;4480;52.370;9.748;2023-05-10T05:17:50;10.10;;;8.35;;
8887;SDS011;4480;52.370;9.748;2023-05-10T05:20:18;11.20;;;9.00;;
8887;SDS011;4480;52.370;9.748;2023-05-10T05:22:45;8.83;;;7.93;;
8887;SDS011;4480;52.370;9.748;2023-05-10T05:25:11;10.70;;;9.30;;
8887;SDS011;4480;52.370;9.748;2023-05-10T05:27:38;10.03;;;9.03;;
8887;SDS011;4480;52.370;9.748;2023-05-10T05:30:07;13.82;;;9.00;;
8887;SDS011;4480;52.370;9.748;2023-05-10T05:32:34;9.87;;;9.00;;
8887;SDS011;4480;52.370;9.748;2023-05-10T05:35:02;10.23;;;9.17;;
8887;SDS011;4480;52.370;9.748;2023-05-10T05:37:30;14.63;;;9.00;;
8887;SDS011;4480;52.370;9.748;2023-05-10T05:39:57;12.20;;;7.90;;
8887;SDS011;4480;52.370;9.748;2023-05-10T05:42:25;9.03;;;7.40;;
8887;SDS011;4480;52.370;9.748;2023-05-10T05:44:51;8.43;;;7.23;;
8887;SDS011;4480;52.370;9.748;2023-05-10T05:47:18;9.83;;;8.83;;
8887;SDS011;4480;52.370;9.748;2023-05-10T05:49:45;9.53;;;8.30;;
8887;SDS011;4480;52.370;9.748;2023-05-10T05:52:12;11.67;;;8.20;;
8887;SDS011;4480;52.370;9.748;2023-05-10T05:54:40;9.60;;;8.70;;
8887;SDS011;4480;52.370;9.748;2023-05-10T05:57:07;9.23;;;8.23;;
8887;SDS011;4480;52.370;9.748;2023-05-10T05:59:34;9.10;;;7.63;;
8887;SDS011;4480;52.370;9.748;2023-05-10T06:02:00;8.83;;;7.93;;
8887;SDS011;4480;52.370;9.748;2023-05-10T06:04:27;8.47;;;7.57;;
8887;SDS011;4480;52.370;9.748;2023-05-10T06:06:54;9.10;;;8.00;;
8887;SDS011;4480;52.370;9.748;2023-05-10T06:09:21;8.30;;;7.50;;
8887;SDS011;4480;52.370;9.748;2023-05-10T06:11:50;13.03;;;8.40;;
8887;SDS011;4480;52.370;9.748;2023-05-10T06:14:17;11.57;;;8.73;;
8887;SDS011;4480;52.370;9.748;2023-05-10T06:16:46;8.50;;;7.70;;
8887;SDS011;4480;52.370;9.748;2023-05-10T06:19:13;8.27;;;7.57;;
8887;SDS011;4480;52.370;9.748;2023-05-10T06:21:39;13.40;;;8.97;;
8887;SDS011;4480;52.370;9.748;2023-05-10T06:24:06;9.33;;;8.13;;
8887;SDS011;4480;52.370;9.748;2023-05-10T06:26:33;11.47;;;8.50;;
8887;SDS011;4480;52.370;9.748;2023-05-10T06:29:01;9.00;;;7.97;;
8887;SDS011;4480;52.370;9.748;2023-05-10T06:31:28;9.50;;;8.43;;
8887;SDS011;4480;52.370;9.748;2023-05-10T06:33:55;8.83;;;7.93;;
8887;SDS011;4480;52.370;9.748;2023-05-10T06:36:22;8.70;;;7.90;;
8887;SDS011;4480;52.370;9.748;2023-05-10T06:38:51;9.50;;;7.10;;
8887;SDS011;4480;52.370;9.748;2023-05-10T06:41:18;10.03;;;7.83;;
8887;SDS011;4480;52.370;9.748;2023-05-10T06:43:45;9.17;;;7.03;;
8887;SDS011;4480;52.370;9.748;2023-05-10T06:46:13;9.00;;;7.43;;
8887;SDS011;4480;52.370;9.748;2023-05-10T06:48:40;8.53;;;7.83;;
8887;SDS011;4480;52.370;9.748;2023-05-10T06:51:07;8.60;;;7.70;;
8887;SDS011;4480;52.370;9.748;2023-05-10T06:53:33;8.50;;;7.60;;
8887;SDS011;4480;52.370;9.748;2023-05-10T06:56:00;9.73;;;8.50;;
8887;SDS011;4480;52.370;9.748;2023-05-10T06:58:28;9.83;;;7.80;;
8887;SDS011;4480;52.370;9.748;2023-05-10T07:00:54;8.90;;;8.00;;
8887;SDS011;4480;52.370;9.748;2023-05-10T07:03:29;9.83;;;8.83;;
8887;SDS011;4480;52.370;9.748;2023-05-10T07:05:59;10.23;;;8.60;;
8887;SDS011;4480;52.370;9.748;2023-05-10T07:08:28;8.23;;;7.33;;
8887;SDS011;4480;52.370;9.748;2023-05-10T07:10:59;9.52;;;8.50;;
8887;SDS011;4480;52.370;9.748;2023-05-10T07:13:26;9.30;;;7.80;;
8887;SDS011;4480;52.370;9.748;2023-05-10T07:15:53;8.87;;;8.00;;
8887;SDS011;4480;52.370;9.748;2023-05-10T07:18:19;8.03;;;7.23;;
8887;SDS011;4480;52.370;9.748;2023-05-10T07:20:47;8.17;;;7.23;;
8887;SDS011;4480;52.370;9.748;2023-05-10T07:23:14;7.47;;;6.67;;
8887;SDS011;4480;52.370;9.748;2023-05-10T07:25:44;8.43;;;7.60;;
8887;SDS011;4480;52.370;9.748;2023-05-10T07:28:11;7.20;;;6.27;;
8887;SDS011;4480;52.370;9.748;2023-05-10T07:30:38;7.87;;;7.13;;
8887;SDS011;4480;52.370;9.748;2023-05-10T07:33:05;9.70;;;7.43;;
8887;SDS011;4480;52.370;9.748;2023-05-10T07:35:32;9.37;;;8.40;;
8887;SDS011;4480;52.370;9.748;2023-05-10T07:38:00;7.63;;;6.77;;
8887;SDS011;4480;52.370;9.748;2023-05-10T07:40:27;8.33;;;7.53;;
8887;SDS011;4480;52.370;9.748;2023-05-10T07:42:54;8.13;;;6.97;;
8887;SDS011;4480;52.370;9.748;2023-05-10T07:45:21;8.40;;;7.40;;
8887;SDS011;4480;52.370;9.748;2023-05-10T07:47:48;10.60;;;7.20;;
8887;SDS011;4480;52.370;9.748;2023-05-10T07:50:15;8.40;;;7.60;;
8887;SDS011;4480;52.370;9.748;2023-05-10T07:52:41;9.90;;;8.77;;
8887;SDS011;4480;52.370;9.748;2023-05-10T07:55:10;8.97;;;8.07;;
8887;SDS011;4480;52.370;9.748;2023-05-10T07:57:37;9.87;;;8.63;;
8887;SDS011;4480;52.370;9.748;2023-05-10T08:00:04;9.40;;;8.50;;
8887;SDS011;4480;52.370;9.748;2023-05-10T08:02:32;9.77;;;8.50;;
8887;SDS011;4480;52.370;9.748;2023-05-10T08:04:59;10.37;;;9.17;;
8887;SDS011;4480;52.370;9.748;2023-05-10T08:07:26;9.57;;;8.67;;
8887;SDS011;4480;52.370;9.748;2023-05-10T08:09:53;10.77;;;7.47;;
8887;SDS011;4480;52.370;9.748;2023-05-10T08:12:21;9.17;;;8.33;;
8887;SDS011;4480;52.370;9.748;2023-05-10T08:14:48;7.67;;;6.53;;
8887;SDS011;4480;52.370;9.748;2023-05-10T08:17:15;7.27;;;6.50;;
8887;SDS011;4480;52.370;9.748;2023-05-10T08:19:41;5.40;;;4.87;;
8887;SDS011;4480;52.370;9.748;2023-05-10T08:22:08;5.80;;;4.70;;
8887;SDS011;4480;52.370;9.748;2023-05-10T08:24:35;4.83;;;4.00;;
8887;SDS011;4480;52.370;9.748;2023-05-10T08:27:03;3.73;;;3.03;;
8887;SDS011;4480;52.370;9.748;2023-05-10T08:29:31;2.63;;;2.00;;
8887;SDS011;4480;52.370;9.748;2023-05-10T08:31:58;2.50;;;2.30;;
8887;SDS011;4480;52.370;9.748;2023-05-10T08:34:25;3.33;;;2.10;;
8887;SDS011;4480;52.370;9.748;2023-05-10T08:36:52;2.40;;;2.20;;
8887;SDS011;4480;52.370;9.748;2023-05-10T08:39:19;3.00;;;2.63;;
8887;SDS011;4480;52.370;9.748;2023-05-10T08:41:46;4.07;;;2.40;;
8887;SDS011;4480;52.370;9.748;2023-05-10T08:44:14;2.67;;;2.47;;
8887;SDS011;4480;52.370;9.748;2023-05-10T08:46:45;3.00;;;2.70;;
8887;SDS011;4480;52.370;9.748;2023-05-10T08:49:16;3.30;;;3.00;;
8887;SDS011;4480;52.370;9.748;2023-05-10T08:51:44;3.00;;;2.67;;
8887;SDS011;4480;52.370;9.748;2023-05-10T08:54:16;4.67;;;3.30;;
8887;SDS011;4480;52.370;9.748;2023-05-10T08:56:43;4.20;;;3.60;;
8887;SDS011;4480;52.370;9.748;2023-05-10T08:59:09;3.40;;;3.10;;
8887;SDS011;4480;52.370;9.748;2023-05-10T09:01:38;3.63;;;2.93;;
8887;SDS011;4480;52.370;9.748;2023-05-10T09:04:07;4.13;;;3.23;;
8887;SDS011;4480;52.370;9.748;2023-05-10T09:06:34;4.32;;;3.58;;
8887;SDS011;4480;52.370;9.748;2023-05-10T09:09:01;4.70;;;4.00;;
8887;SDS011;4480;52.370;9.748;2023-05-10T09:11:28;6.07;;;4.20;;
8887;SDS011;4480;52.370;9.748;2023-05-10T09:13:56;3.83;;;2.97;;
8887;SDS011;4480;52.370;9.748;2023-05-10T09:16:23;3.60;;;3.17;;
8887;SDS011;4480;52.370;9.748;2023-05-10T09:18:50;3.93;;;3.53;;
8887;SDS011;4480;52.370;9.748;2023-05-10T09:21:18;4.00;;;3.07;;
8887;SDS011;4480;52.370;9.748;2023-05-10T09:23:45;3.20;;;2.90;;
8887;SDS011;4480;52.370;9.748;2023-05-10T09:26:12;7.63;;;4.00;;
8887;SDS011;4480;52.370;9.748;2023-05-10T09:28:49;4.03;;;3.63;;
8887;SDS011;4480;52.370;9.748;2023-05-10T09:31:17;4.20;;;3.80;;
8887;SDS011;4480;52.370;9.748;2023-05-10T09:33:44;3.80;;;3.50;;
8887;SDS011;4480;52.370;9.748;2023-05-10T09:36:11;4.22;;;3.55;;
8887;SDS011;4480;52.370;9.748;2023-05-10T09:38:46;4.85;;;4.40;;
8887;SDS011;4480;52.370;9.748;2023-05-10T09:41:17;4.30;;;3.87;;
8887;SDS011;4480;52.370;9.748;2023-05-10T09:43:45;4.30;;;3.60;;
8887;SDS011;4480;52.370;9.748;2023-05-10T09:46:12;3.70;;;3.40;;
8887;SDS011;4480;52.370;9.748;2023-05-10T09:48:40;3.90;;;3.60;;
8887;SDS011;4480;52.370;9.748;2023-05-10T09:51:09;4.27;;;3.43;;
8887;SDS011;4480;52.370;9.748;2023-05-10T09:53:35;3.97;;;3.47;;
8887;SDS011;4480;52.370;9.748;2023-05-10T09:56:03;3.97;;;3.57;;
8887;SDS011;4480;52.370;9.748;2023-05-10T09:58:30;5.90;;;3.10;;
8887;SDS011;4480;52.370;9.748;2023-05-10T10:00:57;3.87;;;3.53;;
8887;SDS011;4480;52.370;9.748;2023-05-10T10:03:24;5.80;;;3.10;;
8887;SDS011;4480;52.370;9.748;2023-05-10T10:05:51;7.67;;;3.23;;
8887;SDS011;4480;52.370;9.748;2023-05-10T10:08:20;3.63;;;3.20;;
8887;SDS011;4480;52.370;9.748;2023-05-10T10:10:48;4.27;;;3.43;;
8887;SDS011;4480;52.370;9.748;2023-05-10T10:13:17;4.60;;;3.70;;
8887;SDS011;4480;52.370;9.748;2023-05-10T10:15:43;7.07;;;3.50;;
8887;SDS011;4480;52.370;9.748;2023-05-10T10:18:12;4.30;;;3.40;;
8887;SDS011;4480;52.370;9.748;2023-05-10T10:20:40;4.30;;;3.90;;
8887;SDS011;4480;52.370;9.748;2023-05-10T10:23:07;3.47;;;3.17;;
8887;SDS011;4480;52.370;9.748;2023-05-10T10:25:34;5.20;;;4.00;;
8887;SDS011;4480;52.370;9.748;2023-05-10T10:28:11;5.30;;;4.00;;
8887;SDS011;4480;52.370;9.748;2023-05-10T10:30:48;4.10;;;3.70;;
8887;SDS011;4480;52.370;9.748;2023-05-10T10:36:06;4.27;;;3.70;;
8887;SDS011;4480;52.370;9.748;2023-05-10T10:38:37;3.57;;;3.27;;
8887;SDS011;4480;52.370;9.748;2023-05-10T10:41:27;5.33;;;3.73;;
8887;SDS011;4480;52.370;9.748;2023-05-10T10:47:08;5.30;;;3.30;;
8887;SDS011;4480;52.370;9.748;2023-05-10T10:50:02;7.63;;;3.33;;
8887;SDS011;4480;52.370;9.748;2023-05-10T10:52:33;4.63;;;3.00;;
8887;SDS011;4480;52.370;9.748;2023-05-10T10:55:03;5.53;;;3.20;;
8887;SDS011;4480;52.370;9.748;2023-05-10T10:57:35;8.27;;;3.90;;
8887;SDS011;4480;52.370;9.748;2023-05-10T11:00:22;4.30;;;3.45;;
8887;SDS011;4480;52.370;9.748;2023-05-10T11:02:52;3.70;;;2.77;;
8887;SDS011;4480;52.370;9.748;2023-05-10T11:05:24;3.67;;;3.37;;
8887;SDS011;4480;52.370;9.748;2023-05-10T11:08:06;3.77;;;3.13;;
8887;SDS011;4480;52.370;9.748;2023-05-10T11:10:38;3.53;;;3.23;;
8887;SDS011;4480;52.370;9.748;2023-05-10T11:13:06;3.47;;;3.17;;
8887;SDS011;4480;52.370;9.748;2023-05-10T11:15:35;4.63;;;3.13;;
8887;SDS011;4480;52.370;9.748;2023-05-10T11:18:17;3.30;;;2.90;;
8887;SDS011;4480;52.370;9.748;2023-05-10T11:20:46;3.60;;;3.10;;
8887;SDS011;4480;52.370;9.748;2023-05-10T11:23:17;4.00;;;3.40;;
8887;SDS011;4480;52.370;9.748;2023-05-10T11:25:45;5.10;;;3.40;;
8887;SDS011;4480;52.370;9.748;2023-05-10T11:28:12;4.40;;;3.50;;
8887;SDS011;4480;52.370;9.748;2023-05-10T11:30:39;4.60;;;3.50;;
8887;SDS011;4480;52.370;9.748;2023-05-10T11:33:09;4.90;;;3.38;;
8887;SDS011;4480;52.370;9.748;2023-05-10T11:35:42;4.32;;;3.30;;
8887;SDS011;4480;52.370;9.748;2023-05-10T11:38:09;5.07;;;3.80;;
8887;SDS011;4480;52.370;9.748;2023-05-10T11:40:37;4.33;;;3.50;;
8887;SDS011;4480;52.370;9.748;2023-05-10T11:43:04;4.50;;;3.17;;
8887;SDS011;4480;52.370;9.748;2023-05-10T11:45:32;4.30;;;3.90;;
8887;SDS011;4480;52.370;9.748;2023-05-10T11:47:59;5.27;;;3.30;;
8887;SDS011;4480;52.370;9.748;2023-05-10T11:50:26;4.03;;;3.10;;
8887;SDS011;4480;52.370;9.748;2023-05-10T11:52:55;3.77;;;3.40;;
8887;SDS011;4480;52.370;9.748;2023-05-10T11:55:23;4.47;;;3.63;;
8887;SDS011;4480;52.370;9.748;2023-05-10T11:57:51;3.97;;;3.53;;
8887;SDS011;4480;52.370;9.748;2023-05-10T12:00:19;6.07;;;3.67;;
8887;SDS011;4480;52.370;9.748;2023-05-10T12:02:46;3.80;;;3.50;;
8887;SDS011;4480;52.370;9.748;2023-05-10T12:05:13;4.00;;;3.60;;
8887;SDS011;4480;52.370;9.748;2023-05-10T12:07:40;4.73;;;3.37;;
8887;SDS011;4480;52.370;9.748;2023-05-10T12:10:08;5.07;;;3.77;;
8887;SDS011;4480;52.370;9.748;2023-05-10T12:12:39;4.30;;;3.87;;
8887;SDS011;4480;52.370;9.748;2023-05-10T12:15:11;4.90;;;3.90;;
8887;SDS011;4480;52.370;9.748;2023-05-10T12:17:38;5.43;;;3.80;;
8887;SDS011;4480;52.370;9.748;2023-05-10T12:20:15;5.07;;;3.93;;
8887;SDS011;4480;52.370;9.748;2023-05-10T12:22:43;4.43;;;4.03;;
8887;SDS011;4480;52.370;9.748;2023-05-10T12:25:16;4.67;;;4.20;;
8887;SDS011;4480;52.370;9.748;2023-05-10T12:27:53;4.80;;;3.80;;
8887;SDS011;4480;52.370;9.748;2023-05-10T12:30:21;4.60;;;3.50;;
8887;SDS011;4480;52.370;9.748;2023-05-10T12:32:49;4.60;;;3.73;;
8887;SDS011;4480;52.370;9.748;2023-05-10T12:35:16;4.53;;;3.77;;
8887;SDS011;4480;52.370;9.748;2023-05-10T12:37:46;3.87;;;3.57;;
8887;SDS011;4480;52.370;9.748;2023-05-10T12:40:12;4.97;;;4.03;;
8887;SDS011;4480;52.370;9.748;2023-05-10T12:42:41;6.63;;;3.93;;
8887;SDS011;4480;52.370;9.748;2023-05-10T12:45:10;5.17;;;4.67;;
8887;SDS011;4480;52.370;9.748;2023-05-10T12:47:37;4.70;;;4.20;;
8887;SDS011;4480;52.370;9.748;2023-05-10T12:50:04;6.20;;;4.80;;
8887;SDS011;4480;52.370;9.748;2023-05-10T12:52:31;4.40;;;3.90;;
8887;SDS011;4480;52.370;9.748;2023-05-10T12:54:58;3.50;;;3.20;;
8887;SDS011;4480;52.370;9.748;2023-05-10T12:57:25;6.90;;;4.07;;
8887;SDS011;4480;52.370;9.748;2023-05-10T12:59:54;4.17;;;3.80;;
8887;SDS011;4480;52.370;9.748;2023-05-10T13:02:21;4.67;;;4.07;;
8887;SDS011;4480;52.370;9.748;2023-05-10T13:04:48;6.17;;;4.20;;
8887;SDS011;4480;52.370;9.748;2023-05-10T13:07:15;4.20;;;3.60;;
8887;SDS011;4480;52.370;9.748;2023-05-10T13:09:42;4.23;;;3.83;;
8887;SDS011;4480;52.370;9.748;2023-05-10T13:12:09;4.30;;;3.63;;
8887;SDS011;4480;52.370;9.748;2023-05-10T13:14:35;6.40;;;3.73;;
8887;SDS011;4480;52.370;9.748;2023-05-10T13:17:03;4.10;;;3.30;;
8887;SDS011;4480;52.370;9.748;2023-05-10T13:19:30;3.40;;;3.10;;
8887;SDS011;4480;52.370;9.748;2023-05-10T13:21:57;4.20;;;3.53;;
8887;SDS011;4480;52.370;9.748;2023-05-10T13:24:24;5.45;;;4.00;;
8887;SDS011;4480;52.370;9.748;2023-05-10T13:26:50;5.03;;;4.30;;
8887;SDS011;4480;52.370;9.748;2023-05-10T13:29:17;3.20;;;2.90;;
8887;SDS011;4480;52.370;9.748;2023-05-10T13:31:44;3.90;;;3.50;;
8887;SDS011;4480;52.370;9.748;2023-05-10T13:34:12;3.50;;;3.20;;
8887;SDS011;4480;52.370;9.748;2023-05-10T13:36:39;3.80;;;3.30;;
8887;SDS011;4480;52.370;9.748;2023-05-10T13:39:06;4.93;;;3.03;;
8887;SDS011;4480;52.370;9.748;2023-05-10T13:41:33;3.72;;;3.17;;
8887;SDS011;4480;52.370;9.748;2023-05-10T13:44:00;4.93;;;3.80;;
8887;SDS011;4480;52.370;9.748;2023-05-10T13:46:26;3.53;;;3.22;;
8887;SDS011;4480;52.370;9.748;2023-05-10T13:48:53;4.03;;;3.40;;
8887;SDS011;4480;52.370;9.748;2023-05-10T13:51:21;4.00;;;3.70;;
8887;SDS011;4480;52.370;9.748;2023-05-10T13:53:48;4.60;;;3.10;;
8887;SDS011;4480;52.370;9.748;2023-05-10T13:56:15;5.90;;;3.57;;
8887;SDS011;4480;52.370;9.748;2023-05-10T13:58:42;4.13;;;3.73;;
8887;SDS011;4480;52.370;9.748;2023-05-10T14:01:09;4.03;;;3.30;;
8887;SDS011;4480;52.370;9.748;2023-05-10T14:03:37;4.23;;;3.80;;
8887;SDS011;4480;52.370;9.748;2023-05-10T14:06:03;5.50;;;3.83;;
8887;SDS011;4480;52.370;9.748;2023-05-10T14:08:33;4.70;;;3.90;;
8887;SDS011;4480;52.370;9.748;2023-05-10T14:11:00;4.00;;;3.50;;
8887;SDS011;4480;52.370;9.748;2023-05-10T14:13:27;4.90;;;4.30;;
8887;SDS011;4480;52.370;9.748;2023-05-10T14:15:54;5.60;;;4.40;;
8887;SDS011;4480;52.370;9.748;2023-05-10T14:18:21;8.97;;;5.47;;
8887;SDS011;4480;52.370;9.748;2023-05-10T14:20:48;7.33;;;6.53;;
8887;SDS011;4480;52.370;9.748;2023-05-10T14:23:15;7.63;;;6.33;;
8887;SDS011;4480;52.370;9.748;2023-05-10T14:25:43;10.53;;;7.63;;
8887;SDS011;4480;52.370;9.748;2023-05-10T14:28:10;11.37;;;7.03;;
8887;SDS011;4480;52.370;9.748;2023-05-10T14:30:37;8.90;;;7.20;;
8887;SDS011;4480;52.370;9.748;2023-05-10T14:33:04;9.10;;;6.90;;
8887;SDS011;4480;52.370;9.748;2023-05-10T14:35:30;10.10;;;7.40;;
8887;SDS011;4480;52.370;9.748;2023-05-10T14:37:57;8.70;;;7.43;;
8887;SDS011;4480;52.370;9.748;2023-05-10T14:40:24;10.50;;;8.00;;
8887;SDS011;4480;52.370;9.748;2023-05-10T14:42:52;11.23;;;8.00;;
8887;SDS011;4480;52.370;9.748;2023-05-10T14:45:19;9.85;;;8.45;;
8887;SDS011;4480;52.370;9.748;2023-05-10T14:47:47;11.07;;;8.70;;
8887;SDS011;4480;52.370;9.748;2023-05-10T14:50:14;11.52;;;8.82;;
8887;SDS011;4480;52.370;9.748;2023-05-10T14:52:41;13.98;;;10.10;;
8887;SDS011;4480;52.370;9.748;2023-05-10T14:55:08;11.82;;;9.50;;
8887;SDS011;4480;52.370;9.748;2023-05-10T14:57:35;13.80;;;10.00;;
8887;SDS011;4480;52.370;9.748;2023-05-10T15:00:04;13.67;;;10.43;;
8887;SDS011;4480;52.370;9.748;2023-05-10T15:02:32;11.50;;;9.60;;
8887;SDS011;4480;52.370;9.748;2023-05-10T15:04:58;10.17;;;8.70;;
8887;SDS011;4480;52.370;9.748;2023-05-10T15:07:25;12.67;;;9.00;;
8887;SDS011;4480;52.370;9.748;2023-05-10T15:09:52;11.37;;;9.33;;
8887;SDS011;4480;52.370;9.748;2023-05-10T15:12:19;12.03;;;9.50;;
8887;SDS011;4480;52.370;9.748;2023-05-10T15:14:46;13.25;;;10.00;;
8887;SDS011;4480;52.370;9.748;2023-05-10T15:17:14;12.67;;;9.70;;
8887;SDS011;4480;52.370;9.748;2023-05-10T15:19:41;12.48;;;10.00;;
8887;SDS011;4480;52.370;9.748;2023-05-10T15:22:08;13.02;;;10.10;;
8887;SDS011;4480;52.370;9.748;2023-05-10T15:24:35;13.63;;;9.10;;
8887;SDS011;4480;52.370;9.748;2023-05-10T15:27:02;10.40;;;8.60;;
8887;SDS011;4480;52.370;9.748;2023-05-10T15:29:28;13.30;;;9.70;;
8887;SDS011;4480;52.370;9.748;2023-05-10T15:31:56;12.48;;;10.65;;